createdAt,value
2018-06-21T00:00:12.062Z,68
2018-06-21T00:00:24.528Z,68
2018-06-21T00:00:36.967Z,68
2018-06-21T00:00:49.468Z,68
2018-06-21T00:01:01.916Z,68
2018-06-21T00:01:14.470Z,68
2018-06-21T00:01:26.931Z,68
2018-06-21T00:01:39.343Z,68
2018-06-21T00:01:51.779Z,68
2018-06-21T00:02:04.249Z,68
2018-06-21T00:02:16.662Z,68
2018-06-21T00:02:29.071Z,68
2018-06-21T00:02:41.476Z,68
2018-06-21T00:02:53.889Z,68
2018-06-21T00:03:06.309Z,68
2018-06-21T00:03:18.728Z,68
2018-06-21T00:03:31.164Z,68
2018-06-21T00:03:43.647Z,68
2018-06-21T00:03:56.046Z,68
2018-06-21T00:04:08.449Z,68
2018-06-21T00:04:20.849Z,69
2018-06-21T00:04:33.247Z,69
2018-06-21T00:04:45.654Z,69
2018-06-21T00:04:58.051Z,69
2018-06-21T00:05:10.505Z,69
2018-06-21T00:05:22.918Z,69
2018-06-21T00:05:35.337Z,69
2018-06-21T00:05:47.768Z,69
2018-06-21T00:06:00.168Z,69
2018-06-21T00:06:12.612Z,69
2018-06-21T00:06:25.041Z,69
2018-06-21T00:06:37.502Z,69
2018-06-21T00:06:49.909Z,69
2018-06-21T00:07:02.298Z,69
2018-06-21T00:07:14.702Z,69
2018-06-21T00:07:27.243Z,69
2018-06-21T00:07:39.643Z,69
2018-06-21T00:07:52.036Z,69
2018-06-21T00:08:04.425Z,69
2018-06-21T00:08:16.869Z,69
2018-06-21T00:08:29.280Z,69
2018-06-21T00:08:41.694Z,69
2018-06-21T00:08:54.087Z,69
2018-06-21T00:09:06.523Z,69
2018-06-21T00:09:18.925Z,69
2018-06-21T00:09:31.345Z,69
2018-06-21T00:09:43.771Z,69
2018-06-21T00:09:56.171Z,69
2018-06-21T00:10:08.578Z,69
2018-06-21T00:10:20.993Z,69
2018-06-21T00:10:33.397Z,69
2018-06-21T00:10:45.789Z,69
2018-06-21T00:10:58.215Z,69
2018-06-21T00:11:10.628Z,69
2018-06-21T00:11:23.045Z,69
2018-06-21T00:11:35.440Z,69
2018-06-21T00:11:47.919Z,69
2018-06-21T00:12:00.334Z,69
2018-06-21T00:12:12.761Z,69
2018-06-21T00:12:25.203Z,69
2018-06-21T00:12:37.757Z,69
2018-06-21T00:12:50.160Z,69
2018-06-21T00:13:02.579Z,69
2018-06-21T00:13:14.965Z,69
2018-06-21T00:13:27.375Z,69
2018-06-21T00:13:39.793Z,69
2018-06-21T00:13:52.195Z,69
2018-06-21T00:14:04.632Z,69
2018-06-21T00:14:17.024Z,69
2018-06-21T00:14:29.464Z,69
2018-06-21T00:14:41.876Z,69
2018-06-21T00:14:54.288Z,69
2018-06-21T00:15:06.693Z,69
2018-06-21T00:15:19.096Z,69
2018-06-21T00:15:31.510Z,69
2018-06-21T00:15:43.961Z,69
2018-06-21T00:15:56.400Z,69
2018-06-21T00:16:08.829Z,69
2018-06-21T00:16:21.234Z,69
2018-06-21T00:16:33.630Z,69
2018-06-21T00:16:46.062Z,69
2018-06-21T00:16:58.473Z,69
2018-06-21T00:17:10.850Z,69
2018-06-21T00:17:23.268Z,69
2018-06-21T00:17:35.714Z,69
2018-06-21T00:17:48.241Z,69
2018-06-21T00:18:00.674Z,69
2018-06-21T00:18:13.109Z,69
2018-06-21T00:18:25.602Z,69
2018-06-21T00:18:38.959Z,69
2018-06-21T00:18:51.667Z,70
2018-06-21T00:19:04.090Z,70
2018-06-21T00:19:16.499Z,70
2018-06-21T00:19:28.910Z,70
2018-06-21T00:19:41.302Z,69
2018-06-21T00:19:53.681Z,69
2018-06-21T00:20:06.085Z,69
2018-06-21T00:20:18.505Z,69
2018-06-21T00:20:30.925Z,70
2018-06-21T00:20:43.323Z,70
2018-06-21T00:20:55.760Z,70
2018-06-21T00:21:08.180Z,70
2018-06-21T00:21:20.609Z,70
2018-06-21T00:21:33.013Z,70
2018-06-21T00:21:45.434Z,70
2018-06-21T00:21:57.881Z,70
2018-06-21T00:22:10.316Z,70
2018-06-21T00:22:22.709Z,70
2018-06-21T00:22:35.118Z,70
2018-06-21T00:22:47.518Z,70
2018-06-21T00:23:00.002Z,70
2018-06-21T00:23:12.448Z,70
2018-06-21T00:23:24.920Z,70
2018-06-21T00:23:37.321Z,70
2018-06-21T00:23:49.746Z,70
2018-06-21T00:24:02.166Z,70
2018-06-21T00:24:14.593Z,70
2018-06-21T00:24:27.021Z,70
2018-06-21T00:24:39.422Z,70
2018-06-21T00:24:51.839Z,70
2018-06-21T00:25:04.256Z,70
2018-06-21T00:25:16.663Z,70
2018-06-21T00:25:29.064Z,70
2018-06-21T00:25:41.480Z,70
2018-06-21T00:25:53.886Z,70
2018-06-21T00:26:06.310Z,70
2018-06-21T00:26:18.720Z,70
2018-06-21T00:26:31.119Z,70
2018-06-21T00:26:43.514Z,70
2018-06-21T00:26:55.938Z,70
2018-06-21T00:27:08.351Z,70
2018-06-21T00:27:20.801Z,70
2018-06-21T00:27:33.388Z,70
2018-06-21T00:27:45.890Z,70
2018-06-21T00:27:58.284Z,70
2018-06-21T00:28:10.717Z,70
2018-06-21T00:28:23.109Z,70
2018-06-21T00:28:35.626Z,70
2018-06-21T00:28:48.021Z,70
2018-06-21T00:29:00.680Z,70
2018-06-21T00:29:13.209Z,70
2018-06-21T00:29:26.268Z,70
2018-06-21T00:29:38.689Z,70
2018-06-21T00:29:51.101Z,70
2018-06-21T00:30:03.554Z,70
2018-06-21T00:30:15.961Z,70
2018-06-21T00:30:28.372Z,70
2018-06-21T00:30:40.770Z,70
2018-06-21T00:30:53.224Z,70
2018-06-21T00:31:05.640Z,70
2018-06-21T00:31:18.096Z,70
2018-06-21T00:31:30.496Z,70
2018-06-21T00:31:42.882Z,70
2018-06-21T00:31:55.325Z,70
2018-06-21T00:32:07.734Z,70
2018-06-21T00:32:20.137Z,70
2018-06-21T00:32:32.539Z,70
2018-06-21T00:32:44.968Z,70
2018-06-21T00:32:57.378Z,70
2018-06-21T00:33:09.777Z,70
2018-06-21T00:33:22.179Z,71
2018-06-21T00:33:34.591Z,71
2018-06-21T00:33:46.998Z,71
2018-06-21T00:33:59.700Z,71
2018-06-21T00:34:12.158Z,70
2018-06-21T00:34:24.556Z,70
2018-06-21T00:34:36.945Z,70
2018-06-21T00:34:49.353Z,70
2018-06-21T00:35:01.771Z,71
2018-06-21T00:35:14.183Z,71
2018-06-21T00:35:26.578Z,71
2018-06-21T00:35:38.973Z,71
2018-06-21T00:35:51.376Z,71
2018-06-21T00:36:03.805Z,71
2018-06-21T00:36:16.225Z,71
2018-06-21T00:36:28.647Z,71
2018-06-21T00:36:41.053Z,71
2018-06-21T00:36:53.452Z,71
2018-06-21T00:37:05.853Z,71
2018-06-21T00:37:18.298Z,71
2018-06-21T00:37:30.696Z,71
2018-06-21T00:37:43.126Z,71
2018-06-21T00:37:55.549Z,71
2018-06-21T00:38:07.974Z,71
2018-06-21T00:38:20.365Z,71
2018-06-21T00:38:32.778Z,71
2018-06-21T00:38:45.169Z,71
2018-06-21T00:38:57.733Z,71
2018-06-21T00:39:10.133Z,71
2018-06-21T00:39:22.567Z,71
2018-06-21T00:39:35.234Z,71
2018-06-21T00:39:47.651Z,71
2018-06-21T00:40:00.070Z,71
2018-06-21T00:40:12.483Z,71
2018-06-21T00:40:25.040Z,71
2018-06-21T00:40:37.437Z,71
2018-06-21T00:40:49.844Z,71
2018-06-21T00:41:02.237Z,71
2018-06-21T00:41:14.635Z,71
2018-06-21T00:41:27.033Z,71
2018-06-21T00:41:39.418Z,71
2018-06-21T00:41:51.841Z,71
2018-06-21T00:42:04.345Z,71
2018-06-21T00:42:16.734Z,71
2018-06-21T00:42:29.153Z,71
2018-06-21T00:42:41.557Z,71
2018-06-21T00:42:53.947Z,71
2018-06-21T00:43:06.339Z,71
2018-06-21T00:43:18.741Z,71
2018-06-21T00:43:31.142Z,71
2018-06-21T00:43:43.557Z,71
2018-06-21T00:43:55.967Z,71
2018-06-21T00:44:08.369Z,71
2018-06-21T00:44:20.779Z,71
2018-06-21T00:44:33.195Z,71
2018-06-21T00:44:45.594Z,71
2018-06-21T00:44:57.997Z,71
2018-06-21T00:45:10.415Z,71
2018-06-21T00:45:22.818Z,71
2018-06-21T00:45:35.219Z,71
2018-06-21T00:45:47.601Z,71
2018-06-21T00:46:00.248Z,71
2018-06-21T00:46:12.692Z,71
2018-06-21T00:46:25.090Z,71
2018-06-21T00:46:37.628Z,71
2018-06-21T00:46:50.019Z,71
2018-06-21T00:47:02.416Z,71
2018-06-21T00:47:14.817Z,71
2018-06-21T00:47:27.223Z,71
2018-06-21T00:47:39.616Z,71
2018-06-21T00:47:52.012Z,72
2018-06-21T00:48:04.427Z,72
2018-06-21T00:48:16.829Z,72
2018-06-21T00:48:29.219Z,72
2018-06-21T00:48:41.785Z,72
2018-06-21T00:48:54.214Z,72
2018-06-21T00:49:06.652Z,72
2018-06-21T00:49:19.051Z,72
2018-06-21T00:49:31.529Z,71
2018-06-21T00:49:43.926Z,71
2018-06-21T00:49:56.320Z,71
2018-06-21T00:50:08.731Z,71
2018-06-21T00:50:21.135Z,71
2018-06-21T00:50:33.601Z,72
2018-06-21T00:50:46.011Z,72
2018-06-21T00:50:58.421Z,72
2018-06-21T00:51:10.821Z,72
2018-06-21T00:51:23.228Z,72
2018-06-21T00:51:35.636Z,72
2018-06-21T00:51:48.054Z,72
2018-06-21T00:52:00.452Z,72
2018-06-21T00:52:12.893Z,72
2018-06-21T00:52:25.301Z,72
2018-06-21T00:52:37.823Z,72
2018-06-21T00:52:50.209Z,72
2018-06-21T00:53:02.647Z,72
2018-06-21T00:53:15.050Z,72
2018-06-21T00:53:27.443Z,72
2018-06-21T00:53:39.840Z,72
2018-06-21T00:53:52.250Z,72
2018-06-21T00:54:04.664Z,72
2018-06-21T00:54:17.074Z,72
2018-06-21T00:54:29.481Z,72
2018-06-21T00:54:41.874Z,72
2018-06-21T00:54:54.303Z,72
2018-06-21T00:55:06.709Z,72
2018-06-21T00:55:19.134Z,72
2018-06-21T00:55:31.616Z,72
2018-06-21T00:55:44.084Z,72
2018-06-21T00:55:56.514Z,72
2018-06-21T00:56:08.937Z,72
2018-06-21T00:56:21.434Z,72
2018-06-21T00:56:33.851Z,72
2018-06-21T00:56:46.255Z,72
2018-06-21T00:56:58.647Z,72
2018-06-21T00:57:11.048Z,72
2018-06-21T00:57:23.442Z,72
2018-06-21T00:57:35.913Z,72
2018-06-21T00:57:48.327Z,72
2018-06-21T00:58:00.731Z,72
2018-06-21T00:58:13.131Z,72
2018-06-21T00:58:25.561Z,72
2018-06-21T00:58:37.983Z,72
2018-06-21T00:58:50.401Z,72
2018-06-21T00:59:02.821Z,72
2018-06-21T00:59:15.226Z,72
2018-06-21T00:59:27.649Z,72
2018-06-21T00:59:40.062Z,72
2018-06-21T00:59:52.448Z,72
2018-06-21T01:00:04.859Z,72
2018-06-21T01:00:17.268Z,72
2018-06-21T01:00:29.718Z,72
2018-06-21T01:00:42.187Z,72
2018-06-21T01:00:54.747Z,72
2018-06-21T01:01:07.192Z,72
2018-06-21T01:01:19.810Z,72
2018-06-21T01:01:32.210Z,72
2018-06-21T01:01:44.615Z,72
2018-06-21T01:01:57.031Z,72
2018-06-21T01:02:09.436Z,72
2018-06-21T01:02:21.841Z,72
2018-06-21T01:02:34.248Z,72
2018-06-21T01:02:46.655Z,72
2018-06-21T01:02:59.069Z,72
2018-06-21T01:03:11.485Z,72
2018-06-21T01:03:23.881Z,72
2018-06-21T01:03:36.293Z,72
2018-06-21T01:03:48.736Z,72
2018-06-21T01:04:01.164Z,72
2018-06-21T01:04:13.576Z,72
2018-06-21T01:04:25.985Z,72
2018-06-21T01:04:38.427Z,72
2018-06-21T01:04:50.827Z,72
2018-06-21T01:05:03.227Z,72
2018-06-21T01:05:15.624Z,72
2018-06-21T01:05:28.027Z,72
2018-06-21T01:05:40.413Z,73
2018-06-21T01:05:52.973Z,73
2018-06-21T01:06:05.361Z,73
2018-06-21T01:06:17.755Z,73
2018-06-21T01:06:30.161Z,73
2018-06-21T01:06:42.575Z,73
2018-06-21T01:06:54.973Z,73
2018-06-21T01:07:07.358Z,73
2018-06-21T01:07:19.778Z,73
2018-06-21T01:07:32.330Z,73
2018-06-21T01:07:44.732Z,73
2018-06-21T01:07:57.125Z,73
2018-06-21T01:08:09.532Z,73
2018-06-21T01:08:21.944Z,73
2018-06-21T01:08:34.362Z,73
2018-06-21T01:08:46.769Z,73
2018-06-21T01:08:59.192Z,73
2018-06-21T01:09:11.591Z,73
2018-06-21T01:09:23.992Z,73
2018-06-21T01:09:36.391Z,73
2018-06-21T01:09:48.797Z,73
2018-06-21T01:10:01.243Z,74
2018-06-21T01:10:13.651Z,74
2018-06-21T01:10:26.048Z,74
2018-06-21T01:10:38.438Z,74
2018-06-21T01:10:50.846Z,74
2018-06-21T01:11:03.236Z,74
2018-06-21T01:11:15.638Z,74
2018-06-21T01:11:28.041Z,74
2018-06-21T01:11:40.463Z,74
2018-06-21T01:11:52.871Z,74
2018-06-21T01:12:05.554Z,74
2018-06-21T01:12:17.990Z,74
2018-06-21T01:12:30.390Z,74
2018-06-21T01:12:42.797Z,74
2018-06-21T01:12:55.206Z,74
2018-06-21T01:13:07.622Z,74
2018-06-21T01:13:20.021Z,74
2018-06-21T01:13:32.426Z,74
2018-06-21T01:13:44.819Z,74
2018-06-21T01:13:57.209Z,74
2018-06-21T01:14:09.589Z,74
2018-06-21T01:14:21.984Z,74
2018-06-21T01:14:34.385Z,74
2018-06-21T01:14:46.771Z,74
2018-06-21T01:14:59.149Z,74
2018-06-21T01:15:11.562Z,74
2018-06-21T01:15:24.019Z,74
2018-06-21T01:15:36.427Z,74
2018-06-21T01:15:48.843Z,74
2018-06-21T01:16:01.277Z,74
2018-06-21T01:16:13.662Z,74
2018-06-21T01:16:26.058Z,74
2018-06-21T01:16:38.474Z,74
2018-06-21T01:16:50.862Z,75
2018-06-21T01:17:03.527Z,75
2018-06-21T01:17:15.928Z,75
2018-06-21T01:17:28.343Z,75
2018-06-21T01:17:40.775Z,75
2018-06-21T01:17:53.331Z,75
2018-06-21T01:18:05.744Z,75
2018-06-21T01:18:18.141Z,75
2018-06-21T01:18:30.548Z,75
2018-06-21T01:18:42.957Z,75
2018-06-21T01:18:55.363Z,75
2018-06-21T01:19:07.773Z,75
2018-06-21T01:19:20.178Z,75
2018-06-21T01:19:32.583Z,75
2018-06-21T01:19:44.999Z,75
2018-06-21T01:19:57.472Z,75
2018-06-21T01:20:09.868Z,75
2018-06-21T01:20:22.278Z,75
2018-06-21T01:20:34.690Z,75
2018-06-21T01:20:47.086Z,75
2018-06-21T01:20:59.493Z,75
2018-06-21T01:21:11.897Z,75
2018-06-21T01:21:24.313Z,75
2018-06-21T01:21:36.708Z,75
2018-06-21T01:21:49.105Z,75
2018-06-21T01:22:01.529Z,75
2018-06-21T01:22:13.939Z,75
2018-06-21T01:22:26.350Z,75
2018-06-21T01:22:38.737Z,75
2018-06-21T01:22:51.141Z,75
2018-06-21T01:23:03.546Z,75
2018-06-21T01:23:15.952Z,75
2018-06-21T01:23:28.353Z,75
2018-06-21T01:23:40.747Z,75
2018-06-21T01:23:53.187Z,75
2018-06-21T01:24:05.607Z,75
2018-06-21T01:24:18.008Z,75
2018-06-21T01:24:30.411Z,75
2018-06-21T01:24:42.800Z,75
2018-06-21T01:24:55.200Z,75
2018-06-21T01:25:07.610Z,75
2018-06-21T01:25:20.137Z,75
2018-06-21T01:25:33.520Z,75
2018-06-21T01:25:45.973Z,75
2018-06-21T01:25:58.384Z,75
2018-06-21T01:26:10.872Z,75
2018-06-21T01:26:23.267Z,75
2018-06-21T01:26:35.701Z,75
2018-06-21T01:26:48.106Z,75
2018-06-21T01:27:00.540Z,75
2018-06-21T01:27:12.942Z,75
2018-06-21T01:27:25.346Z,75
2018-06-21T01:27:37.788Z,75
2018-06-21T01:27:50.184Z,75
2018-06-21T01:28:02.640Z,75
2018-06-21T01:28:15.319Z,75
2018-06-21T01:28:27.725Z,75
2018-06-21T01:28:40.133Z,75
2018-06-21T01:28:52.626Z,75
2018-06-21T01:29:05.249Z,75
2018-06-21T01:29:17.689Z,75
2018-06-21T01:29:30.085Z,75
2018-06-21T01:29:42.494Z,75
2018-06-21T01:29:54.886Z,75
2018-06-21T01:30:07.281Z,75
2018-06-21T01:30:19.674Z,75
2018-06-21T01:30:32.098Z,75
2018-06-21T01:30:44.507Z,75
2018-06-21T01:30:56.963Z,75
2018-06-21T01:31:09.375Z,75
2018-06-21T01:31:21.777Z,75
2018-06-21T01:31:34.195Z,75
2018-06-21T01:31:46.621Z,75
2018-06-21T01:31:59.015Z,75
2018-06-21T01:32:11.406Z,76
2018-06-21T01:32:23.807Z,76
2018-06-21T01:32:36.216Z,76
2018-06-21T01:32:48.626Z,76
2018-06-21T01:33:01.054Z,76
2018-06-21T01:33:13.479Z,76
2018-06-21T01:33:26.076Z,76
2018-06-21T01:33:38.474Z,76
2018-06-21T01:33:50.871Z,76
2018-06-21T01:34:03.316Z,76
2018-06-21T01:34:15.715Z,76
2018-06-21T01:34:28.135Z,76
2018-06-21T01:34:40.567Z,76
2018-06-21T01:34:53.040Z,76
2018-06-21T01:35:05.460Z,76
2018-06-21T01:35:17.887Z,76
2018-06-21T01:35:30.311Z,76
2018-06-21T01:35:42.711Z,76
2018-06-21T01:35:55.093Z,76
2018-06-21T01:36:07.489Z,76
2018-06-21T01:36:19.925Z,76
2018-06-21T01:36:32.337Z,76
2018-06-21T01:36:44.800Z,76
2018-06-21T01:36:57.212Z,76
2018-06-21T01:37:09.642Z,76
2018-06-21T01:37:22.039Z,76
2018-06-21T01:37:34.428Z,76
2018-06-21T01:37:46.821Z,76
2018-06-21T01:37:59.234Z,76
2018-06-21T01:38:11.631Z,76
2018-06-21T01:38:24.082Z,76
2018-06-21T01:38:36.520Z,76
2018-06-21T01:38:48.946Z,76
2018-06-21T01:39:01.517Z,76
2018-06-21T01:39:13.968Z,76
2018-06-21T01:39:26.418Z,76
2018-06-21T01:39:38.848Z,76
2018-06-21T01:39:51.252Z,76
2018-06-21T01:40:03.683Z,76
2018-06-21T01:40:16.203Z,76
2018-06-21T01:40:28.636Z,76
2018-06-21T01:40:41.047Z,76
2018-06-21T01:40:53.465Z,76
2018-06-21T01:41:05.896Z,76
2018-06-21T01:41:18.417Z,76
2018-06-21T01:41:30.816Z,76
2018-06-21T01:41:43.224Z,76
2018-06-21T01:41:55.624Z,76
2018-06-21T01:42:08.104Z,76
2018-06-21T01:42:20.515Z,76
2018-06-21T01:42:32.971Z,76
2018-06-21T01:42:45.371Z,76
2018-06-21T01:42:57.783Z,76
2018-06-21T01:43:10.192Z,76
2018-06-21T01:43:22.588Z,76
2018-06-21T01:43:35.005Z,76
2018-06-21T01:43:47.407Z,76
2018-06-21T01:43:59.838Z,76
2018-06-21T01:44:12.246Z,76
2018-06-21T01:44:24.652Z,76
2018-06-21T01:44:37.054Z,76
2018-06-21T01:44:49.455Z,76
2018-06-21T01:45:01.865Z,76
2018-06-21T01:45:14.270Z,76
2018-06-21T01:45:26.656Z,76
2018-06-21T01:45:39.092Z,76
2018-06-21T01:45:51.675Z,76
2018-06-21T01:46:04.070Z,76
2018-06-21T01:46:16.485Z,76
2018-06-21T01:46:28.898Z,76
2018-06-21T01:46:41.325Z,76
2018-06-21T01:46:53.731Z,76
2018-06-21T01:47:06.391Z,76
2018-06-21T01:47:18.780Z,76
2018-06-21T01:47:31.210Z,76
2018-06-21T01:47:43.598Z,77
2018-06-21T01:47:56.061Z,77
2018-06-21T01:48:08.492Z,77
2018-06-21T01:48:20.884Z,77
2018-06-21T01:48:33.286Z,77
2018-06-21T01:48:45.813Z,77
2018-06-21T01:48:58.226Z,77
2018-06-21T01:49:10.636Z,77
2018-06-21T01:49:23.057Z,77
2018-06-21T01:49:35.454Z,77
2018-06-21T01:49:47.847Z,77
2018-06-21T01:50:00.256Z,77
2018-06-21T01:50:12.691Z,77
2018-06-21T01:50:25.084Z,77
2018-06-21T01:50:37.482Z,77
2018-06-21T01:50:49.890Z,77
2018-06-21T01:51:02.295Z,77
2018-06-21T01:51:14.717Z,77
2018-06-21T01:51:27.104Z,77
2018-06-21T01:51:39.491Z,77
2018-06-21T01:51:51.873Z,77
2018-06-21T01:52:04.328Z,77
2018-06-21T01:52:16.734Z,77
2018-06-21T01:52:29.143Z,77
2018-06-21T01:52:41.591Z,77
2018-06-21T01:52:54.009Z,77
2018-06-21T01:53:06.408Z,77
2018-06-21T01:53:18.822Z,77
2018-06-21T01:53:31.201Z,77
2018-06-21T01:53:43.723Z,77
2018-06-21T01:53:56.124Z,77
2018-06-21T01:54:08.522Z,77
2018-06-21T01:54:20.925Z,77
2018-06-21T01:54:33.363Z,77
2018-06-21T01:54:45.767Z,77
2018-06-21T01:54:58.200Z,77
2018-06-21T01:55:10.616Z,77
2018-06-21T01:55:23.020Z,77
2018-06-21T01:55:35.428Z,77
2018-06-21T01:55:47.853Z,77
2018-06-21T01:56:00.250Z,77
2018-06-21T01:56:12.664Z,77
2018-06-21T01:56:25.081Z,77
2018-06-21T01:56:37.522Z,77
2018-06-21T01:56:49.918Z,77
2018-06-21T01:57:02.319Z,77
2018-06-21T01:57:14.728Z,77
2018-06-21T01:57:27.145Z,77
2018-06-21T01:57:39.523Z,77
2018-06-21T01:57:51.987Z,77
2018-06-21T01:58:04.400Z,77
2018-06-21T01:58:16.816Z,77
2018-06-21T01:58:29.206Z,77
2018-06-21T01:58:41.590Z,77
2018-06-21T01:58:54.003Z,77
2018-06-21T01:59:06.396Z,77
2018-06-21T01:59:18.785Z,77
2018-06-21T01:59:31.174Z,77
2018-06-21T01:59:43.572Z,77
2018-06-21T01:59:55.993Z,77
2018-06-21T02:00:08.427Z,77
2018-06-21T02:00:20.871Z,77
2018-06-21T02:00:33.333Z,77
2018-06-21T02:00:45.885Z,77
2018-06-21T02:00:58.333Z,77
2018-06-21T02:01:10.926Z,77
2018-06-21T02:01:23.346Z,77
2018-06-21T02:01:35.761Z,77
2018-06-21T02:01:48.180Z,77
2018-06-21T02:02:00.590Z,77
2018-06-21T02:02:12.999Z,77
2018-06-21T02:02:25.407Z,77
2018-06-21T02:02:37.802Z,77
2018-06-21T02:02:50.198Z,77
2018-06-21T02:03:02.600Z,77
2018-06-21T02:03:14.992Z,77
2018-06-21T02:03:27.411Z,77
2018-06-21T02:03:39.818Z,77
2018-06-21T02:03:52.239Z,77
2018-06-21T02:04:04.642Z,77
2018-06-21T02:04:17.073Z,77
2018-06-21T02:04:29.462Z,77
2018-06-21T02:04:41.855Z,77
2018-06-21T02:04:54.234Z,77
2018-06-21T02:05:06.663Z,77
2018-06-21T02:05:19.086Z,77
2018-06-21T02:05:31.511Z,77
2018-06-21T02:05:43.904Z,77
2018-06-21T02:05:56.304Z,77
2018-06-21T02:06:08.719Z,77
2018-06-21T02:06:21.246Z,77
2018-06-21T02:06:33.693Z,77
2018-06-21T02:06:46.099Z,77
2018-06-21T02:06:58.483Z,77
2018-06-21T02:07:10.938Z,77
2018-06-21T02:07:23.343Z,77
2018-06-21T02:07:35.920Z,77
2018-06-21T02:07:48.336Z,77
2018-06-21T02:08:01.060Z,77
2018-06-21T02:08:14.364Z,78
2018-06-21T02:08:26.775Z,78
2018-06-21T02:08:39.185Z,78
2018-06-21T02:08:51.590Z,78
2018-06-21T02:09:03.984Z,78
2018-06-21T02:09:16.384Z,78
2018-06-21T02:09:28.789Z,78
2018-06-21T02:09:41.183Z,78
2018-06-21T02:09:53.565Z,78
2018-06-21T02:10:05.999Z,78
2018-06-21T02:10:18.430Z,78
2018-06-21T02:10:30.827Z,78
2018-06-21T02:10:43.241Z,78
2018-06-21T02:10:55.637Z,78
2018-06-21T02:11:08.059Z,78
2018-06-21T02:11:20.473Z,78
2018-06-21T02:11:32.881Z,78
2018-06-21T02:11:45.283Z,78
2018-06-21T02:11:57.692Z,78
2018-06-21T02:12:10.104Z,78
2018-06-21T02:12:22.508Z,78
2018-06-21T02:12:34.996Z,79
2018-06-21T02:12:47.421Z,79
2018-06-21T02:12:59.805Z,79
2018-06-21T02:13:12.299Z,79
2018-06-21T02:13:24.710Z,79
2018-06-21T02:13:37.137Z,79
2018-06-21T02:13:49.547Z,79
2018-06-21T02:14:01.941Z,79
2018-06-21T02:14:14.393Z,79
2018-06-21T02:14:26.809Z,79
2018-06-21T02:14:39.262Z,79
2018-06-21T02:14:51.669Z,79
2018-06-21T02:15:04.067Z,79
2018-06-21T02:15:16.481Z,79
2018-06-21T02:15:28.880Z,79
2018-06-21T02:15:41.301Z,79
2018-06-21T02:15:53.736Z,79
2018-06-21T02:16:06.155Z,79
2018-06-21T02:16:18.576Z,79
2018-06-21T02:16:30.994Z,79
2018-06-21T02:16:43.393Z,80
2018-06-21T02:16:55.822Z,80
2018-06-21T02:17:08.213Z,80
2018-06-21T02:17:20.602Z,80
2018-06-21T02:17:33.035Z,80
2018-06-21T02:17:45.434Z,80
2018-06-21T02:17:58.068Z,80
2018-06-21T02:18:10.460Z,80
2018-06-21T02:18:22.867Z,80
2018-06-21T02:18:35.288Z,80
2018-06-21T02:18:47.700Z,80
2018-06-21T02:19:00.103Z,80
2018-06-21T02:19:12.505Z,80
2018-06-21T02:19:24.959Z,80
2018-06-21T02:19:37.347Z,80
2018-06-21T02:19:49.745Z,80
2018-06-21T02:20:02.148Z,80
2018-06-21T02:20:14.563Z,80
2018-06-21T02:20:26.968Z,80
2018-06-21T02:20:39.369Z,80
2018-06-21T02:20:51.787Z,80
2018-06-21T02:21:04.183Z,80
2018-06-21T02:21:16.595Z,80
2018-06-21T02:21:29.035Z,80
2018-06-21T02:21:41.432Z,80
2018-06-21T02:21:53.841Z,80
2018-06-21T02:22:06.223Z,80
2018-06-21T02:22:18.625Z,80
2018-06-21T02:22:31.028Z,80
2018-06-21T02:22:43.490Z,80
2018-06-21T02:22:55.969Z,80
2018-06-21T02:23:08.381Z,80
2018-06-21T02:23:20.780Z,80
2018-06-21T02:23:33.180Z,80
2018-06-21T02:23:45.579Z,80
2018-06-21T02:23:57.970Z,80
2018-06-21T02:24:10.369Z,80
2018-06-21T02:24:22.770Z,80
2018-06-21T02:24:35.171Z,80
2018-06-21T02:24:47.577Z,80
2018-06-21T02:24:59.971Z,80
2018-06-21T02:25:12.394Z,80
2018-06-21T02:25:24.812Z,80
2018-06-21T02:25:37.226Z,80
2018-06-21T02:25:49.663Z,80
2018-06-21T02:26:02.204Z,80
2018-06-21T02:26:14.623Z,80
2018-06-21T02:26:27.005Z,80
2018-06-21T02:26:39.417Z,80
2018-06-21T02:26:51.861Z,80
2018-06-21T02:27:04.251Z,80
2018-06-21T02:27:16.662Z,80
2018-06-21T02:27:29.063Z,80
2018-06-21T02:27:41.465Z,79
2018-06-21T02:27:53.856Z,79
2018-06-21T02:28:06.263Z,79
2018-06-21T02:28:18.679Z,79
2018-06-21T02:28:31.070Z,79
2018-06-21T02:28:43.472Z,79
2018-06-21T02:28:56.149Z,79
2018-06-21T02:29:08.710Z,79
2018-06-21T02:29:21.102Z,79
2018-06-21T02:29:33.496Z,79
2018-06-21T02:29:45.905Z,79
2018-06-21T02:29:58.309Z,79
2018-06-21T02:30:10.756Z,79
2018-06-21T02:30:23.202Z,79
2018-06-21T02:30:35.651Z,79
2018-06-21T02:30:48.173Z,79
2018-06-21T02:31:00.624Z,79
2018-06-21T02:31:13.085Z,79
2018-06-21T02:31:25.533Z,79
2018-06-21T02:31:37.961Z,79
2018-06-21T02:31:50.379Z,79
2018-06-21T02:32:02.857Z,79
2018-06-21T02:32:15.267Z,79
2018-06-21T02:32:27.673Z,79
2018-06-21T02:32:40.137Z,79
2018-06-21T02:32:52.599Z,79
2018-06-21T02:33:05.040Z,79
2018-06-21T02:33:17.455Z,79
2018-06-21T02:33:29.877Z,79
2018-06-21T02:33:42.292Z,79
2018-06-21T02:33:54.732Z,79
2018-06-21T02:34:07.428Z,79
2018-06-21T02:34:20.473Z,79
2018-06-21T02:34:33.641Z,79
2018-06-21T02:34:46.080Z,79
2018-06-21T02:34:58.489Z,79
2018-06-21T02:35:10.902Z,79
2018-06-21T02:35:23.317Z,79
2018-06-21T02:35:35.753Z,79
2018-06-21T02:35:48.152Z,79
2018-06-21T02:36:00.587Z,79
2018-06-21T02:36:13.015Z,79
2018-06-21T02:36:25.488Z,79
2018-06-21T02:36:37.891Z,79
2018-06-21T02:36:50.333Z,79
2018-06-21T02:37:02.762Z,79
2018-06-21T02:37:15.186Z,79
2018-06-21T02:37:27.607Z,79
2018-06-21T02:37:40.077Z,79
2018-06-21T02:37:52.521Z,79
2018-06-21T02:38:04.932Z,79
2018-06-21T02:38:17.347Z,79
2018-06-21T02:38:29.781Z,79
2018-06-21T02:38:42.444Z,79
2018-06-21T02:38:55.029Z,79
2018-06-21T02:39:07.436Z,79
2018-06-21T02:39:19.849Z,79
2018-06-21T02:39:32.327Z,79
2018-06-21T02:39:44.739Z,78
2018-06-21T02:39:57.147Z,78
2018-06-21T02:40:09.609Z,78
2018-06-21T02:40:22.160Z,78
2018-06-21T02:40:34.581Z,78
2018-06-21T02:40:47.007Z,78
2018-06-21T02:40:59.441Z,78
2018-06-21T02:41:11.879Z,78
2018-06-21T02:41:24.311Z,78
2018-06-21T02:41:36.735Z,78
2018-06-21T02:41:49.151Z,78
2018-06-21T02:42:01.715Z,78
2018-06-21T02:42:14.131Z,78
2018-06-21T02:42:26.580Z,78
2018-06-21T02:42:38.990Z,78
2018-06-21T02:42:51.406Z,78
2018-06-21T02:43:03.871Z,78
2018-06-21T02:43:16.317Z,78
2018-06-21T02:43:28.762Z,78
2018-06-21T02:43:41.211Z,78
2018-06-21T02:43:53.616Z,78
2018-06-21T02:44:06.041Z,78
2018-06-21T02:44:18.457Z,78
2018-06-21T02:44:30.862Z,78
2018-06-21T02:44:43.283Z,78
2018-06-21T02:44:55.697Z,78
2018-06-21T02:45:08.176Z,78
2018-06-21T02:45:20.595Z,78
2018-06-21T02:45:33.039Z,78
2018-06-21T02:45:45.465Z,77
2018-06-21T02:45:58.104Z,77
2018-06-21T02:46:10.518Z,77
2018-06-21T02:46:22.960Z,77
2018-06-21T02:46:35.361Z,78
2018-06-21T02:46:47.781Z,78
2018-06-21T02:47:00.219Z,78
2018-06-21T02:47:12.673Z,78
2018-06-21T02:47:25.120Z,78
2018-06-21T02:47:37.529Z,78
2018-06-21T02:47:50.085Z,78
2018-06-21T02:48:02.529Z,78
2018-06-21T02:48:14.970Z,77
2018-06-21T02:48:27.385Z,77
2018-06-21T02:48:39.956Z,77
2018-06-21T02:48:52.375Z,77
2018-06-21T02:49:04.827Z,77
2018-06-21T02:49:17.235Z,77
2018-06-21T02:49:29.698Z,77
2018-06-21T02:49:42.142Z,77
2018-06-21T02:49:54.578Z,78
2018-06-21T02:50:07.017Z,78
2018-06-21T02:50:19.461Z,78
2018-06-21T02:50:31.971Z,78
2018-06-21T02:50:44.482Z,78
2018-06-21T02:50:56.960Z,78
2018-06-21T02:51:09.370Z,78
2018-06-21T02:51:21.827Z,78
2018-06-21T02:51:34.237Z,77
2018-06-21T02:51:46.650Z,77
2018-06-21T02:51:59.099Z,77
2018-06-21T02:52:11.512Z,77
2018-06-21T02:52:23.940Z,77
2018-06-21T02:52:36.388Z,77
2018-06-21T02:52:48.814Z,77
2018-06-21T02:53:01.240Z,77
2018-06-21T02:53:13.695Z,77
2018-06-21T02:53:26.119Z,77
2018-06-21T02:53:38.595Z,77
2018-06-21T02:53:51.020Z,77
2018-06-21T02:54:03.464Z,77
2018-06-21T02:54:15.911Z,77
2018-06-21T02:54:28.312Z,77
2018-06-21T02:54:40.750Z,77
2018-06-21T02:54:53.167Z,77
2018-06-21T02:55:05.577Z,77
2018-06-21T02:55:18.022Z,77
2018-06-21T02:55:30.461Z,77
2018-06-21T02:55:42.888Z,77
2018-06-21T02:55:55.314Z,77
2018-06-21T02:56:07.743Z,77
2018-06-21T02:56:20.169Z,77
2018-06-21T02:56:32.604Z,77
2018-06-21T02:56:45.022Z,77
2018-06-21T02:56:57.436Z,77
2018-06-21T02:57:09.863Z,77
2018-06-21T02:57:22.256Z,77